PAC9551 RKSI-RJAA
Flight info
| Callsign | PAC9551 |
|---|---|
| Flight time | N/A |
| Altitude | 35000 |
| Route | N0483F350 EGOBA2C EGOBA Y697 LANAT Y51 SAMON Y517 HAKKA/N0485F330 Y517 ESKAS Y303 ENTAK Y30 GURIP/N0394F150 Y30 SWAMP SWAMPN |
| Aircraft | B748/H-SADE1E2E3FGHIJ1J2J3J4J5J7M1M3P2RWXYZ/LB1D1G1 |
Departure
| Time | 2026-05-05 07:20 |
|---|---|
| Airport | Incheon International Airport (RKSI) |
Arrival
| Time | N/A |
|---|---|
| Airport | Narita International Airport (RJAA) |
| Time | Latitude | Longitude | Altitude | Speed | Heading |
|---|---|---|---|---|---|
| 2026-05-05 04:42 | 37.47206 | 126.45932 | 37 ft | 0 kts | 144° |
| 2026-05-05 07:06 | 37.47211 | 126.45927 | 36 ft | 4 kts | 144° |
| 2026-05-05 07:07 | 37.47233 | 126.45907 | 36 ft | 4 kts | 146° |
| 2026-05-05 07:07 | 37.47255 | 126.45891 | 36 ft | 4 kts | 164° |
| 2026-05-05 07:07 | 37.47275 | 126.45887 | 36 ft | 4 kts | 184° |
| 2026-05-05 07:07 | 37.47296 | 126.45893 | 36 ft | 4 kts | 216° |
| 2026-05-05 07:08 | 37.47315 | 126.45915 | 36 ft | 4 kts | 233° |
| 2026-05-05 07:08 | 37.47322 | 126.45927 | 36 ft | 0 kts | 234° |
| 2026-05-05 07:11 | 37.47298 | 126.45885 | 36 ft | 7 kts | 234° |
| 2026-05-05 07:11 | 37.47268 | 126.45832 | 36 ft | 8 kts | 234° |
| 2026-05-05 07:11 | 37.47235 | 126.45774 | 36 ft | 8 kts | 234° |
| 2026-05-05 07:12 | 37.47203 | 126.45717 | 36 ft | 10 kts | 234° |
| 2026-05-05 07:12 | 37.47160 | 126.45641 | 36 ft | 10 kts | 234° |
| 2026-05-05 07:12 | 37.47119 | 126.45568 | 36 ft | 10 kts | 234° |
| 2026-05-05 07:12 | 37.47091 | 126.45501 | 36 ft | 6 kts | 283° |
| 2026-05-05 07:13 | 37.47136 | 126.45447 | 36 ft | 13 kts | 318° |
| 2026-05-05 07:13 | 37.47207 | 126.45379 | 36 ft | 13 kts | 325° |
| 2026-05-05 07:13 | 37.47278 | 126.45317 | 36 ft | 12 kts | 325° |
| 2026-05-05 07:13 | 37.47345 | 126.45258 | 36 ft | 12 kts | 325° |
| 2026-05-05 07:14 | 37.47411 | 126.45200 | 36 ft | 11 kts | 325° |
| 2026-05-05 07:14 | 37.47474 | 126.45145 | 36 ft | 11 kts | 325° |
| 2026-05-05 07:14 | 37.47534 | 126.45092 | 36 ft | 10 kts | 325° |
| 2026-05-05 07:14 | 37.47596 | 126.45035 | 36 ft | 16 kts | 323° |
| 2026-05-05 07:15 | 37.47689 | 126.44949 | 36 ft | 16 kts | 324° |
| 2026-05-05 07:15 | 37.47784 | 126.44864 | 36 ft | 17 kts | 324° |
| 2026-05-05 07:15 | 37.47879 | 126.44780 | 36 ft | 16 kts | 324° |
| 2026-05-05 07:15 | 37.47978 | 126.44691 | 36 ft | 15 kts | 324° |
| 2026-05-05 07:16 | 37.47981 | 126.44584 | 36 ft | 15 kts | 234° |
| 2026-05-05 07:16 | 37.47923 | 126.44482 | 36 ft | 14 kts | 235° |
| 2026-05-05 07:16 | 37.47864 | 126.44376 | 36 ft | 15 kts | 234° |
| 2026-05-05 07:16 | 37.47815 | 126.44272 | 36 ft | 8 kts | 275° |
| 2026-05-05 07:17 | 37.47856 | 126.44225 | 36 ft | 12 kts | 324° |
| 2026-05-05 07:17 | 37.47924 | 126.44165 | 36 ft | 12 kts | 324° |
| 2026-05-05 07:17 | 37.47988 | 126.44107 | 36 ft | 11 kts | 324° |
| 2026-05-05 07:17 | 37.48050 | 126.44052 | 36 ft | 11 kts | 324° |
| 2026-05-05 07:18 | 37.48109 | 126.43999 | 36 ft | 10 kts | 324° |
| 2026-05-05 07:18 | 37.48165 | 126.43949 | 36 ft | 10 kts | 324° |
| 2026-05-05 07:18 | 37.48221 | 126.43900 | 36 ft | 9 kts | 324° |
| 2026-05-05 07:18 | 37.48264 | 126.43845 | 36 ft | 9 kts | 283° |
| 2026-05-05 07:19 | 37.48243 | 126.43775 | 36 ft | 9 kts | 234° |
| 2026-05-05 07:19 | 37.48208 | 126.43713 | 36 ft | 8 kts | 234° |
| 2026-05-05 07:19 | 37.48166 | 126.43667 | 36 ft | 8 kts | 198° |
| 2026-05-05 07:19 | 37.48121 | 126.43681 | 36 ft | 8 kts | 146° |
| 2026-05-05 07:20 | 37.47955 | 126.43824 | 36 ft | 62 kts | 145° |
| 2026-05-05 07:20 | 37.47420 | 126.44301 | 37 ft | 127 kts | 143° |
| 2026-05-05 07:20 | 37.46510 | 126.45116 | 54 ft | 190 kts | 146° |
| 2026-05-05 07:20 | 37.45427 | 126.46157 | 772 ft | 192 kts | 140° |
| 2026-05-05 07:21 | 37.44533 | 126.47358 | 1940 ft | 185 kts | 135° |
| 2026-05-05 07:21 | 37.43699 | 126.48614 | 2512 ft | 190 kts | 133° |
| 2026-05-05 07:21 | 37.42845 | 126.49932 | 2911 ft | 197 kts | 133° |
| 2026-05-05 07:21 | 37.41959 | 126.51288 | 3308 ft | 208 kts | 132° |
| 2026-05-05 07:22 | 37.40993 | 126.52757 | 3479 ft | 227 kts | 132° |
| 2026-05-05 07:22 | 37.39951 | 126.54334 | 3698 ft | 246 kts | 132° |
| 2026-05-05 07:22 | 37.38832 | 126.56026 | 4091 ft | 255 kts | 132° |
| 2026-05-05 07:22 | 37.37623 | 126.57686 | 4619 ft | 259 kts | 142° |
| 2026-05-05 07:23 | 37.36072 | 126.58883 | 4925 ft | 263 kts | 155° |
| 2026-05-05 07:23 | 37.34387 | 126.59824 | 5617 ft | 266 kts | 160° |
| 2026-05-05 07:23 | 37.32653 | 126.60591 | 6516 ft | 263 kts | 164° |
| 2026-05-05 07:23 | 37.30882 | 126.61304 | 7129 ft | 272 kts | 164° |
| 2026-05-05 07:24 | 37.29151 | 126.62269 | 7777 ft | 282 kts | 147° |
| 2026-05-05 07:24 | 37.27808 | 126.64146 | 8441 ft | 293 kts | 122° |
| 2026-05-05 07:24 | 37.27212 | 126.66535 | 9162 ft | 297 kts | 100° |
| 2026-05-05 07:24 | 37.27159 | 126.69146 | 9667 ft | 303 kts | 89° |
| 2026-05-05 07:25 | 37.27358 | 126.71740 | 9941 ft | 303 kts | 85° |
| 2026-05-05 07:25 | 37.27610 | 126.74356 | 10050 ft | 304 kts | 84° |
| 2026-05-05 07:25 | 37.27858 | 126.77048 | 10079 ft | 323 kts | 84° |
| 2026-05-05 07:25 | 37.28068 | 126.79989 | 10096 ft | 353 kts | 86° |
| 2026-05-05 07:26 | 37.28234 | 126.83199 | 10091 ft | 384 kts | 87° |
| 2026-05-05 07:26 | 37.28409 | 126.86647 | 10085 ft | 402 kts | 86° |
| 2026-05-05 07:26 | 37.28592 | 126.90120 | 10083 ft | 406 kts | 86° |
| 2026-05-05 07:26 | 37.28898 | 126.93666 | 10081 ft | 408 kts | 83° |
| 2026-05-05 07:27 | 37.29260 | 126.97189 | 10088 ft | 407 kts | 83° |
| 2026-05-05 07:27 | 37.29596 | 127.00710 | 10085 ft | 406 kts | 84° |
| 2026-05-05 07:27 | 37.29913 | 127.04236 | 10092 ft | 407 kts | 84° |
| 2026-05-05 07:27 | 37.30232 | 127.07770 | 10097 ft | 406 kts | 84° |
| 2026-05-05 07:28 | 37.30580 | 127.11295 | 10071 ft | 407 kts | 81° |
| 2026-05-05 07:28 | 37.31207 | 127.14758 | 10075 ft | 407 kts | 74° |
| 2026-05-05 07:28 | 37.32099 | 127.18138 | 10075 ft | 408 kts | 71° |
| 2026-05-05 07:28 | 37.33072 | 127.21483 | 10061 ft | 408 kts | 66° |
| 2026-05-05 07:29 | 37.34604 | 127.24460 | 10075 ft | 406 kts | 48° |
| 2026-05-05 07:29 | 37.36634 | 127.26949 | 10395 ft | 413 kts | 41° |
| 2026-05-05 07:29 | 37.38851 | 127.29233 | 11341 ft | 413 kts | 37° |
| 2026-05-05 07:29 | 37.41189 | 127.31330 | 12310 ft | 412 kts | 33° |
| 2026-05-05 07:30 | 37.43582 | 127.33370 | 13050 ft | 419 kts | 34° |
| 2026-05-05 07:30 | 37.47871 | 127.38338 | 14541 ft | 429 kts | 57° |
| 2026-05-05 07:30 | 37.49214 | 127.41716 | 15208 ft | 435 kts | 66° |
| 2026-05-05 07:31 | 37.50140 | 127.45356 | 15929 ft | 437 kts | 77° |
| 2026-05-05 07:31 | 37.50604 | 127.49157 | 16567 ft | 443 kts | 88° |
| 2026-05-05 07:31 | 37.50328 | 127.53020 | 17244 ft | 445 kts | 101° |
| 2026-05-05 07:31 | 37.49629 | 127.56847 | 17858 ft | 450 kts | 105° |
| 2026-05-05 07:32 | 37.49064 | 127.59355 | 18305 ft | 452 kts | 108° |
| 2026-05-05 07:32 | 37.47741 | 127.64412 | 19150 ft | 457 kts | 110° |
| 2026-05-05 07:32 | 37.47034 | 127.66923 | 19561 ft | 460 kts | 110° |
| 2026-05-05 07:32 | 37.45955 | 127.70731 | 20179 ft | 464 kts | 110° |
| 2026-05-05 07:33 | 37.44522 | 127.75842 | 20904 ft | 470 kts | 110° |
| 2026-05-05 07:33 | 37.43439 | 127.79723 | 21603 ft | 471 kts | 110° |
| 2026-05-05 07:33 | 37.42705 | 127.82368 | 21917 ft | 476 kts | 110° |
| 2026-05-05 07:33 | 37.41252 | 127.87602 | 22673 ft | 481 kts | 109° |
| 2026-05-05 07:34 | 37.40503 | 127.90290 | 23053 ft | 483 kts | 109° |
| 2026-05-05 07:34 | 37.39400 | 127.94299 | 23604 ft | 487 kts | 109° |
| 2026-05-05 07:34 | 37.38315 | 127.98338 | 24161 ft | 490 kts | 109° |
| 2026-05-05 07:34 | 37.37208 | 128.02418 | 24623 ft | 496 kts | 109° |
| 2026-05-05 07:35 | 37.36097 | 128.06484 | 25063 ft | 500 kts | 109° |
| 2026-05-05 07:35 | 37.34962 | 128.10629 | 25617 ft | 502 kts | 109° |
| 2026-05-05 07:35 | 37.33817 | 128.14785 | 26038 ft | 506 kts | 109° |
| 2026-05-05 07:35 | 37.32660 | 128.18971 | 26526 ft | 508 kts | 109° |
| 2026-05-05 07:36 | 37.31493 | 128.23186 | 26852 ft | 513 kts | 109° |
| 2026-05-05 07:36 | 37.30313 | 128.27432 | 27295 ft | 514 kts | 110° |
| 2026-05-05 07:36 | 37.29131 | 128.31683 | 27633 ft | 518 kts | 110° |
| 2026-05-05 07:36 | 37.27938 | 128.35962 | 27933 ft | 522 kts | 110° |
| 2026-05-05 07:37 | 37.26733 | 128.40277 | 28298 ft | 523 kts | 110° |
| 2026-05-05 07:37 | 37.25531 | 128.44577 | 28787 ft | 522 kts | 110° |
| 2026-05-05 07:37 | 37.24326 | 128.48873 | 29265 ft | 519 kts | 110° |
| 2026-05-05 07:37 | 37.23130 | 128.53138 | 29758 ft | 518 kts | 110° |
| 2026-05-05 07:38 | 37.21930 | 128.57406 | 30004 ft | 521 kts | 110° |
| 2026-05-05 07:38 | 37.20719 | 128.61707 | 30327 ft | 521 kts | 110° |
| 2026-05-05 07:38 | 37.19513 | 128.65986 | 30689 ft | 521 kts | 110° |
| 2026-05-05 07:38 | 37.18302 | 128.70269 | 31057 ft | 520 kts | 110° |
| 2026-05-05 07:39 | 37.17093 | 128.74538 | 31407 ft | 520 kts | 110° |
| 2026-05-05 07:39 | 37.15885 | 128.78808 | 31689 ft | 520 kts | 110° |
| 2026-05-05 07:39 | 37.14671 | 128.83079 | 31987 ft | 520 kts | 110° |
| 2026-05-05 07:39 | 37.13459 | 128.87346 | 32278 ft | 520 kts | 111° |
| 2026-05-05 07:40 | 37.12244 | 128.91615 | 32548 ft | 520 kts | 111° |
| 2026-05-05 07:40 | 37.11026 | 128.95887 | 32833 ft | 520 kts | 111° |
| 2026-05-05 07:40 | 37.09811 | 129.00140 | 33127 ft | 519 kts | 111° |
| 2026-05-05 07:40 | 37.08604 | 129.04357 | 33324 ft | 520 kts | 111° |
| 2026-05-05 07:41 | 37.07383 | 129.08623 | 33587 ft | 520 kts | 111° |
| 2026-05-05 07:41 | 37.06162 | 129.12883 | 33814 ft | 520 kts | 111° |
| 2026-05-05 07:41 | 37.04935 | 129.17150 | 34001 ft | 520 kts | 111° |
| 2026-05-05 07:41 | 37.03708 | 129.21408 | 34215 ft | 521 kts | 111° |
| 2026-05-05 07:42 | 37.02478 | 129.25677 | 34355 ft | 522 kts | 111° |
| 2026-05-05 07:42 | 37.01243 | 129.29950 | 34522 ft | 522 kts | 112° |
| 2026-05-05 07:42 | 37.00008 | 129.34225 | 34708 ft | 522 kts | 112° |
| 2026-05-05 07:42 | 36.98770 | 129.38499 | 34819 ft | 524 kts | 112° |
| 2026-05-05 07:43 | 36.97528 | 129.42782 | 34969 ft | 524 kts | 112° |
| 2026-05-05 07:43 | 36.96281 | 129.47075 | 35025 ft | 525 kts | 112° |
| 2026-05-05 07:43 | 36.93780 | 129.55657 | 35036 ft | 526 kts | 112° |
| 2026-05-05 07:44 | 36.91288 | 129.64187 | 35033 ft | 526 kts | 112° |
| 2026-05-05 07:44 | 36.88772 | 129.72773 | 35033 ft | 526 kts | 112° |
| 2026-05-05 07:45 | 36.86247 | 129.81368 | 35035 ft | 527 kts | 112° |
| 2026-05-05 07:45 | 36.83713 | 129.89960 | 35036 ft | 527 kts | 112° |
| 2026-05-05 07:46 | 36.81169 | 129.98559 | 35037 ft | 528 kts | 113° |
| 2026-05-05 07:46 | 36.78614 | 130.07165 | 35033 ft | 531 kts | 113° |
| 2026-05-05 07:47 | 36.76042 | 130.15812 | 35038 ft | 532 kts | 113° |
| 2026-05-05 07:47 | 36.73464 | 130.24448 | 35041 ft | 531 kts | 113° |
| 2026-05-05 07:48 | 36.70879 | 130.33080 | 35041 ft | 532 kts | 113° |
| 2026-05-05 07:48 | 36.68305 | 130.41641 | 35045 ft | 532 kts | 114° |
| 2026-05-05 07:49 | 36.65693 | 130.50316 | 35056 ft | 532 kts | 114° |
| 2026-05-05 07:49 | 36.63084 | 130.58946 | 35060 ft | 532 kts | 114° |
| 2026-05-05 07:50 | 36.60470 | 130.67570 | 35059 ft | 533 kts | 114° |
| 2026-05-05 07:50 | 36.57845 | 130.76202 | 35064 ft | 532 kts | 114° |
| 2026-05-05 07:51 | 36.55219 | 130.84814 | 35062 ft | 532 kts | 114° |
| 2026-05-05 07:51 | 36.52586 | 130.93419 | 35065 ft | 533 kts | 114° |
| 2026-05-05 07:52 | 36.49943 | 131.02033 | 35068 ft | 533 kts | 114° |
| 2026-05-05 07:52 | 36.47335 | 131.10607 | 35074 ft | 534 kts | 114° |
| 2026-05-05 07:53 | 36.44676 | 131.19224 | 35093 ft | 535 kts | 114° |
| 2026-05-05 07:53 | 36.41991 | 131.27852 | 35099 ft | 536 kts | 115° |
| 2026-05-05 07:54 | 36.39301 | 131.36476 | 35102 ft | 536 kts | 115° |
| 2026-05-05 07:54 | 36.37377 | 131.45413 | 35095 ft | 541 kts | 100° |
| 2026-05-05 07:55 | 36.36793 | 131.54774 | 35105 ft | 546 kts | 94° |
| 2026-05-05 07:55 | 36.36576 | 131.64192 | 35107 ft | 547 kts | 94° |
| 2026-05-05 07:56 | 36.36297 | 131.73655 | 35106 ft | 549 kts | 94° |
| 2026-05-05 07:56 | 36.35979 | 131.83125 | 35108 ft | 549 kts | 95° |
| 2026-05-05 07:57 | 36.35704 | 131.92590 | 35105 ft | 549 kts | 94° |
| 2026-05-05 07:57 | 36.35410 | 132.02067 | 35106 ft | 549 kts | 94° |
| 2026-05-05 07:58 | 36.35089 | 132.11544 | 35107 ft | 550 kts | 95° |
| 2026-05-05 07:58 | 36.34754 | 132.21019 | 35107 ft | 550 kts | 95° |
| 2026-05-05 07:59 | 36.34410 | 132.30494 | 35109 ft | 550 kts | 95° |
| 2026-05-05 07:59 | 36.34060 | 132.39913 | 35109 ft | 550 kts | 95° |
| 2026-05-05 08:00 | 36.33700 | 132.49386 | 35110 ft | 550 kts | 95° |
| 2026-05-05 08:00 | 36.33333 | 132.58851 | 35110 ft | 550 kts | 95° |
| 2026-05-05 08:01 | 36.32958 | 132.68333 | 35110 ft | 550 kts | 95° |
| 2026-05-05 08:01 | 36.32572 | 132.77813 | 35105 ft | 551 kts | 95° |
| 2026-05-05 08:02 | 36.32184 | 132.87306 | 35112 ft | 551 kts | 95° |
| 2026-05-05 08:02 | 36.31787 | 132.96802 | 35112 ft | 552 kts | 95° |
| 2026-05-05 08:03 | 36.31380 | 133.06309 | 35113 ft | 553 kts | 95° |
| 2026-05-05 08:03 | 36.30965 | 133.15854 | 35113 ft | 553 kts | 95° |
| 2026-05-05 08:04 | 36.30544 | 133.25331 | 35111 ft | 555 kts | 95° |
| 2026-05-05 08:04 | 36.30114 | 133.34900 | 35113 ft | 556 kts | 95° |
| 2026-05-05 08:05 | 36.29708 | 133.44480 | 35113 ft | 557 kts | 95° |
| 2026-05-05 08:05 | 36.29251 | 133.54073 | 35114 ft | 558 kts | 96° |
| 2026-05-05 08:06 | 36.28782 | 133.63675 | 35115 ft | 559 kts | 96° |
| 2026-05-05 08:06 | 36.28308 | 133.73297 | 35114 ft | 559 kts | 96° |
| 2026-05-05 08:07 | 36.27853 | 133.82932 | 35114 ft | 560 kts | 96° |
| 2026-05-05 08:07 | 36.27364 | 133.92583 | 35114 ft | 561 kts | 96° |
| 2026-05-05 08:08 | 36.26863 | 134.02222 | 35114 ft | 561 kts | 96° |
| 2026-05-05 08:08 | 36.26369 | 134.11806 | 35116 ft | 562 kts | 96° |
| 2026-05-05 08:09 | 36.25887 | 134.21489 | 35116 ft | 562 kts | 96° |
| 2026-05-05 08:09 | 36.25359 | 134.31117 | 35115 ft | 562 kts | 97° |
| 2026-05-05 08:10 | 36.24822 | 134.40776 | 35117 ft | 562 kts | 97° |
| 2026-05-05 08:10 | 36.24589 | 134.50437 | 35122 ft | 563 kts | 87° |
| 2026-05-05 08:11 | 36.25763 | 134.60064 | 35119 ft | 566 kts | 79° |
| 2026-05-05 08:11 | 36.27433 | 134.69606 | 35120 ft | 566 kts | 78° |
| 2026-05-05 08:12 | 36.29067 | 134.79163 | 35120 ft | 567 kts | 78° |
| 2026-05-05 08:12 | 36.30653 | 134.88741 | 35127 ft | 568 kts | 78° |
| 2026-05-05 08:13 | 36.32274 | 134.98339 | 35128 ft | 569 kts | 78° |
| 2026-05-05 08:13 | 36.33890 | 135.07963 | 35133 ft | 570 kts | 78° |
| 2026-05-05 08:14 | 36.35481 | 135.17618 | 35137 ft | 572 kts | 79° |
| 2026-05-05 08:14 | 36.37061 | 135.27298 | 35141 ft | 573 kts | 79° |
| 2026-05-05 08:15 | 36.38368 | 135.35358 | 35144 ft | 574 kts | 79° |
| 2026-05-05 08:15 | 36.39940 | 135.45102 | 35145 ft | 576 kts | 79° |
| 2026-05-05 08:16 | 36.41507 | 135.54865 | 35148 ft | 577 kts | 79° |
| 2026-05-05 08:16 | 36.43065 | 135.64631 | 35153 ft | 578 kts | 79° |
| 2026-05-05 08:17 | 36.44623 | 135.74444 | 35156 ft | 579 kts | 79° |
| 2026-05-05 08:17 | 36.46164 | 135.84213 | 35160 ft | 580 kts | 79° |
| 2026-05-05 08:18 | 36.47707 | 135.94044 | 35161 ft | 580 kts | 79° |
| 2026-05-05 08:18 | 36.49244 | 136.03890 | 35164 ft | 580 kts | 80° |
| 2026-05-05 08:19 | 36.50774 | 136.13762 | 35166 ft | 582 kts | 80° |
| 2026-05-05 08:19 | 36.52298 | 136.23641 | 35165 ft | 582 kts | 80° |
| 2026-05-05 08:20 | 36.53817 | 136.33537 | 35168 ft | 582 kts | 80° |
| 2026-05-05 08:20 | 36.55328 | 136.43433 | 35168 ft | 582 kts | 80° |
| 2026-05-05 08:21 | 36.56828 | 136.53337 | 35166 ft | 583 kts | 80° |
| 2026-05-05 08:21 | 36.58348 | 136.63178 | 35163 ft | 583 kts | 80° |
| 2026-05-05 08:22 | 36.59831 | 136.73121 | 35158 ft | 584 kts | 80° |
| 2026-05-05 08:22 | 36.61297 | 136.83069 | 35151 ft | 585 kts | 80° |
| 2026-05-05 08:23 | 36.62767 | 136.93045 | 35146 ft | 585 kts | 81° |
| 2026-05-05 08:23 | 36.64198 | 137.02973 | 35144 ft | 586 kts | 81° |
| 2026-05-05 08:24 | 36.65611 | 137.12939 | 35139 ft | 587 kts | 81° |
| 2026-05-05 08:24 | 36.67030 | 137.23009 | 35142 ft | 589 kts | 81° |
| 2026-05-05 08:25 | 36.68443 | 137.33075 | 35142 ft | 590 kts | 81° |
| 2026-05-05 08:25 | 36.69885 | 137.43129 | 35080 ft | 588 kts | 81° |
| 2026-05-05 08:26 | 36.71321 | 137.53202 | 35128 ft | 593 kts | 81° |
| 2026-05-05 08:26 | 36.72735 | 137.63336 | 35130 ft | 593 kts | 82° |
| 2026-05-05 08:27 | 36.74154 | 137.73461 | 35138 ft | 593 kts | 81° |
| 2026-05-05 08:27 | 36.75558 | 137.83568 | 35143 ft | 594 kts | 82° |
| 2026-05-05 08:28 | 36.76928 | 137.93724 | 35144 ft | 594 kts | 82° |
| 2026-05-05 08:28 | 36.78292 | 138.03887 | 35149 ft | 596 kts | 82° |
| 2026-05-05 08:29 | 36.79692 | 138.14128 | 35156 ft | 599 kts | 82° |
| 2026-05-05 08:30 | 36.81813 | 138.29465 | 35159 ft | 598 kts | 82° |
| 2026-05-05 08:30 | 36.83194 | 138.39717 | 35161 ft | 598 kts | 82° |
| 2026-05-05 08:31 | 36.84564 | 138.49897 | 35164 ft | 598 kts | 82° |